Time;durP1;ratioP1;P1;durP2;ratioP2;P2;SDS_P1;SDS_P2;PMS_P1;PMS_P2;Temp;Humidity;BMP_temperature;BMP_pressure;BME280_temperature;BME280_humidity;BME280_pressure;Samples;Min_cycle;Max_cycle;Signal;HPM_P1;HPM_P2
2022/11/30 00:00:10;;;;;;;;;;;1.80;99.90;;;;;;4935296;28;19934;-75
2022/11/30 00:02:36;;;;;;;;;;;1.80;99.90;;;;;;4939262;28;19934;-75
2022/11/30 00:05:01;;;;;;;;;;;1.70;99.90;;;;;;4939691;28;19927;-75
2022/11/30 00:07:27;;;;;;;;;;;1.70;99.90;;;;;;4941242;28;20375;-75
2022/11/30 00:09:52;;;;;;;;;;;1.60;99.90;;;;;;4956946;28;20342;-74
2022/11/30 00:12:18;;;;;;;;;;;1.60;99.90;;;;;;4959564;28;19932;-74
2022/11/30 00:14:44;;;;;;;;;;;1.60;99.90;;;;;;4941514;28;19949;-74
2022/11/30 00:17:09;;;;;;;;;;;1.60;99.90;;;;;;4948336;28;20453;-74
2022/11/30 00:19:35;;;;;;;;;;;1.60;99.90;;;;;;4937993;28;19923;-74
2022/11/30 00:22:00;;;;;;;;;;;1.60;99.90;;;;;;4928277;28;19926;-74
2022/11/30 00:24:26;;;;;;;;;;;1.60;99.90;;;;;;4956740;28;20009;-74
2022/11/30 00:26:51;;;;;;;;;;;1.70;99.90;;;;;;4938632;28;20300;-75
2022/11/30 00:29:17;;;;;;;;;;;1.80;99.90;;;;;;4935699;28;19989;-75
2022/11/30 00:31:42;;;;;;;;;;;1.80;99.90;;;;;;4970302;28;19925;-75
2022/11/30 00:34:08;;;;;;;;;;;1.90;99.90;;;;;;4948665;28;19950;-75
2022/11/30 00:36:34;;;;;;;;;;;2.00;99.90;;;;;;4945236;28;20421;-74
2022/11/30 00:38:59;;;;;;;;;;;2.10;99.90;;;;;;4954617;28;19935;-74
2022/11/30 00:41:25;;;;;;;;;;;2.20;99.90;;;;;;4941210;28;19953;-74
2022/11/30 00:43:50;;;;;;;;;;;2.30;99.90;;;;;;4939328;28;19937;-74
2022/11/30 00:46:16;;;;;;;;;;;2.40;99.90;;;;;;4952595;28;20013;-75
2022/11/30 00:48:42;;;;;;;;;;;2.50;99.90;;;;;;4950472;28;19929;-75
2022/11/30 00:51:08;;;;;;;;;;;2.60;99.90;;;;;;4953973;28;20012;-75
2022/11/30 00:53:34;;;;;;;;;;;2.60;99.90;;;;;;4963125;28;19972;-75
2022/11/30 00:55:59;;;;;;;;;;;2.70;99.90;;;;;;4945790;28;19977;-75
2022/11/30 00:58:25;;;;;;;;;;;2.70;99.90;;;;;;4949881;28;19927;-75
2022/11/30 01:00:51;;;;;;;;;;;2.80;99.90;;;;;;4936790;28;19927;-75
2022/11/30 01:03:16;;;;;;;;;;;2.80;99.90;;;;;;4957461;28;19961;-75
2022/11/30 01:05:42;;;;;;;;;;;2.90;99.90;;;;;;4941118;28;20246;-75
2022/11/30 01:08:08;;;;;;;;;;;3.00;99.90;;;;;;4947674;28;20009;-75
2022/11/30 01:10:34;;;;;;;;;;;3.00;99.90;;;;;;4931789;28;19925;-75
2022/11/30 01:13:00;;;;;;;;;;;3.10;99.90;;;;;;4953402;28;20417;-75
2022/11/30 01:15:26;;;;;;;;;;;3.10;99.90;;;;;;4936615;28;19926;-75
2022/11/30 01:17:51;;;;;;;;;;;3.20;99.90;;;;;;4938675;28;20374;-75
2022/11/30 01:20:17;;;;;;;;;;;3.20;99.90;;;;;;4957627;28;19922;-75
2022/11/30 01:22:43;;;;;;;;;;;3.30;99.90;;;;;;4943682;28;19930;-75
2022/11/30 01:25:09;;;;;;;;;;;3.40;99.90;;;;;;4943855;28;20013;-75
2022/11/30 01:27:34;;;;;;;;;;;3.40;99.90;;;;;;4934883;29;20009;-75
2022/11/30 01:30:00;;;;;;;;;;;3.40;99.90;;;;;;4943310;28;20385;-75
2022/11/30 01:32:26;;;;;;;;;;;3.50;99.90;;;;;;4944707;28;19986;-75
2022/11/30 01:34:52;;;;;;;;;;;3.50;99.90;;;;;;4935779;28;20409;-75
2022/11/30 01:37:17;;;;;;;;;;;3.60;99.90;;;;;;4945505;28;19922;-75
2022/11/30 01:39:43;;;;;;;;;;;3.60;99.90;;;;;;4960248;28;20442;-75
2022/11/30 01:42:13;;;;;;;;;;;3.60;99.90;;;;;;4945982;28;19937;-75
2022/11/30 01:44:47;;;;;;;;;;;3.60;99.90;;;;;;4952357;28;19980;-75
2022/11/30 01:47:13;;;;;;;;;;;3.60;99.90;;;;;;4947300;28;19933;-76
2022/11/30 01:49:47;;;;;;;;;;;3.60;99.90;;;;;;4962233;28;19926;-75
2022/11/30 01:52:18;;;;;;;;;;;3.60;99.90;;;;;;4963148;28;20554;-75
2022/11/30 01:54:51;;;;;;;;;;;3.50;99.90;;;;;;4952112;28;20005;-75
2022/11/30 01:57:29;;;;;;;;;;;3.40;99.90;;;;;;4963799;28;19928;-75
2022/11/30 01:59:57;;;;;;;;;;;3.30;99.90;;;;;;4960754;28;19927;-75
2022/11/30 02:02:27;;;;;;;;;;;3.20;99.90;;;;;;4949948;28;20218;-75
2022/11/30 02:04:53;;;;;;;;;;;3.10;99.90;;;;;;4964695;28;19922;-75
2022/11/30 02:07:18;;;;;;;;;;;3.00;99.90;;;;;;4970679;28;20414;-75
2022/11/30 02:09:44;;;;;;;;;;;3.00;99.90;;;;;;4939884;28;20301;-75
2022/11/30 02:12:15;;;;;;;;;;;2.90;99.90;;;;;;4936347;28;20330;-75
2022/11/30 02:14:49;;;;;;;;;;;2.80;99.90;;;;;;4958666;28;20476;-75
2022/11/30 02:17:15;;;;;;;;;;;2.70;99.90;;;;;;4966116;28;20017;-75
2022/11/30 02:19:59;;;;;;;;;;;2.60;99.90;;;;;;4939552;28;20013;-75
2022/11/30 02:22:44;;;;;;;;;;;2.50;99.90;;;;;;4951255;28;19930;-75
2022/11/30 02:25:25;;;;;;;;;;;2.50;99.90;;;;;;4949206;28;20343;-75
2022/11/30 02:28:13;;;;;;;;;;;2.40;99.90;;;;;;4931382;28;19922;-75
2022/11/30 02:30:41;;;;;;;;;;;2.40;99.90;;;;;;4958531;28;19927;-75
2022/11/30 02:33:26;;;;;;;;;;;2.30;99.90;;;;;;4936343;28;19922;-75
2022/11/30 02:35:54;;;;;;;;;;;2.30;99.90;;;;;;4942243;28;19922;-75
2022/11/30 02:38:21;;;;;;;;;;;2.30;99.90;;;;;;4950998;28;19922;-75
2022/11/30 02:40:46;;;;;;;;;;;2.30;99.90;;;;;;4965247;28;19930;-75
2022/11/30 02:43:12;;;;;;;;;;;2.30;99.90;;;;;;4968476;28;20465;-75
2022/11/30 02:45:47;;;;;;;;;;;2.30;99.90;;;;;;4959946;28;19942;-75
2022/11/30 02:48:14;;;;;;;;;;;2.30;99.90;;;;;;4965269;28;19929;-75
2022/11/30 02:50:43;;;;;;;;;;;2.20;99.90;;;;;;4945105;28;20118;-75
2022/11/30 02:53:08;;;;;;;;;;;2.10;99.90;;;;;;4965088;28;19933;-75
2022/11/30 02:55:34;;;;;;;;;;;2.00;99.90;;;;;;4955961;28;19923;-75
2022/11/30 02:58:00;;;;;;;;;;;1.90;99.90;;;;;;4949039;28;19921;-75
2022/11/30 03:00:25;;;;;;;;;;;1.80;99.90;;;;;;4943059;28;20422;-75
2022/11/30 03:02:51;;;;;;;;;;;1.80;99.90;;;;;;4963241;28;20037;-75
2022/11/30 03:05:16;;;;;;;;;;;1.70;99.90;;;;;;4971511;28;19933;-75
2022/11/30 03:07:42;;;;;;;;;;;1.70;99.90;;;;;;4972098;28;20420;-75
2022/11/30 03:10:08;;;;;;;;;;;1.70;99.90;;;;;;4948029;29;19978;-75
2022/11/30 03:12:33;;;;;;;;;;;1.60;99.90;;;;;;4941848;28;19921;-75
2022/11/30 03:14:59;;;;;;;;;;;1.70;99.90;;;;;;4963451;28;19941;-75
2022/11/30 03:17:25;;;;;;;;;;;1.60;99.90;;;;;;4948416;28;19927;-75
2022/11/30 03:19:50;;;;;;;;;;;1.60;99.90;;;;;;4955381;28;20520;-75
2022/11/30 03:22:16;;;;;;;;;;;1.60;99.90;;;;;;4935629;28;20009;-75
2022/11/30 03:24:41;;;;;;;;;;;1.50;99.90;;;;;;4928668;28;19929;-75
2022/11/30 03:27:07;;;;;;;;;;;1.40;99.90;;;;;;4939034;28;20033;-75
2022/11/30 03:29:32;;;;;;;;;;;1.40;99.90;;;;;;4940413;29;19926;-75
2022/11/30 03:31:58;;;;;;;;;;;1.40;99.90;;;;;;4932408;28;19930;-75
2022/11/30 03:34:26;;;;;;;;;;;1.30;99.90;;;;;;4941307;28;20839;-75
2022/11/30 03:36:51;;;;;;;;;;;1.30;99.90;;;;;;4949035;28;20438;-75
2022/11/30 03:39:17;;;;;;;;;;;1.20;99.90;;;;;;4937767;29;19974;-75
2022/11/30 03:41:43;;;;;;;;;;;1.20;99.90;;;;;;4932768;28;20037;-75
2022/11/30 03:44:08;;;;;;;;;;;1.10;99.90;;;;;;4942394;28;19938;-75
2022/11/30 03:46:34;;;;;;;;;;;1.00;99.90;;;;;;4939783;28;19930;-75
2022/11/30 03:48:59;;;;;;;;;;;1.00;99.90;;;;;;4949439;28;19930;-75
2022/11/30 03:51:25;;;;;;;;;;;1.00;99.90;;;;;;4943372;28;19937;-74
2022/11/30 03:53:50;;;;;;;;;;;1.00;99.90;;;;;;4942261;28;19933;-74
2022/11/30 03:56:16;;;;;;;;;;;1.00;99.90;;;;;;4958271;28;20027;-74
2022/11/30 03:58:42;;;;;;;;;;;1.00;99.90;;;;;;4928709;28;20477;-75
2022/11/30 04:01:07;;;;;;;;;;;1.00;99.90;;;;;;4942871;28;19931;-76
2022/11/30 04:03:33;;;;;;;;;;;1.00;99.90;;;;;;4939525;28;19936;-75
2022/11/30 04:05:59;;;;;;;;;;;1.00;99.90;;;;;;4934068;28;20013;-75
2022/11/30 04:08:25;;;;;;;;;;;1.00;99.90;;;;;;4940141;28;20462;-74
2022/11/30 04:10:52;;;;;;;;;;;1.00;99.90;;;;;;4952810;28;20020;-75
2022/11/30 04:13:18;;;;;;;;;;;1.00;99.90;;;;;;4958674;28;19926;-75
2022/11/30 04:15:45;;;;;;;;;;;1.10;99.90;;;;;;4949880;28;19926;-75
2022/11/30 04:18:10;;;;;;;;;;;1.10;99.90;;;;;;4947231;28;19930;-75
2022/11/30 04:20:36;;;;;;;;;;;1.10;99.90;;;;;;4953277;28;20093;-75
2022/11/30 04:23:01;;;;;;;;;;;1.00;99.90;;;;;;4942463;28;19926;-75
2022/11/30 04:25:27;;;;;;;;;;;1.00;99.90;;;;;;4947508;28;19926;-75
2022/11/30 04:27:52;;;;;;;;;;;0.90;99.90;;;;;;4945761;28;20013;-75
2022/11/30 04:30:18;;;;;;;;;;;0.90;99.90;;;;;;4937449;28;19932;-75
2022/11/30 04:32:43;;;;;;;;;;;0.90;99.90;;;;;;4933568;28;19926;-75
2022/11/30 04:35:10;;;;;;;;;;;0.90;99.90;;;;;;4922654;28;20190;-75
2022/11/30 04:37:36;;;;;;;;;;;0.90;99.90;;;;;;4942457;28;19932;-74
2022/11/30 04:40:01;;;;;;;;;;;0.90;99.90;;;;;;4941978;28;19922;-74
2022/11/30 04:42:27;;;;;;;;;;;1.00;99.90;;;;;;4950859;28;20398;-75
2022/11/30 04:44:52;;;;;;;;;;;1.00;99.90;;;;;;4959087;28;20436;-75
2022/11/30 04:47:18;;;;;;;;;;;1.00;99.90;;;;;;4939793;28;19970;-75
2022/11/30 04:49:44;;;;;;;;;;;1.00;99.90;;;;;;4956113;28;20511;-75
2022/11/30 04:52:09;;;;;;;;;;;1.00;99.90;;;;;;4946961;28;20025;-75
2022/11/30 04:54:35;;;;;;;;;;;1.00;99.90;;;;;;4930017;28;19926;-75
2022/11/30 04:57:00;;;;;;;;;;;1.00;99.90;;;;;;4950892;28;19930;-75
2022/11/30 04:59:26;;;;;;;;;;;1.00;99.90;;;;;;4953282;28;19926;-75
2022/11/30 05:01:53;;;;;;;;;;;1.10;99.90;;;;;;4944342;28;20045;-75
2022/11/30 05:04:18;;;;;;;;;;;1.20;99.90;;;;;;4956459;28;19926;-75
2022/11/30 05:06:44;;;;;;;;;;;1.30;99.90;;;;;;4938377;28;19994;-75
2022/11/30 05:09:09;;;;;;;;;;;1.40;99.90;;;;;;4935898;28;20339;-75
2022/11/30 05:11:35;;;;;;;;;;;1.40;99.90;;;;;;4961103;28;19930;-77
2022/11/30 05:14:01;;;;;;;;;;;1.50;99.90;;;;;;4956382;28;20073;-75
2022/11/30 05:16:26;;;;;;;;;;;1.60;99.90;;;;;;4939995;28;20025;-75
2022/11/30 05:18:52;;;;;;;;;;;1.60;99.90;;;;;;4935983;28;19929;-75
2022/11/30 05:21:17;;;;;;;;;;;1.60;99.90;;;;;;4939160;28;19933;-75
2022/11/30 05:23:43;;;;;;;;;;;1.70;99.90;;;;;;4933930;28;20023;-75
2022/11/30 05:26:09;;;;;;;;;;;1.70;99.90;;;;;;4928485;28;19926;-75
2022/11/30 05:28:35;;;;;;;;;;;1.70;99.90;;;;;;4952554;28;20317;-75
2022/11/30 05:31:01;;;;;;;;;;;1.70;99.90;;;;;;4949876;28;19922;-75
2022/11/30 05:33:27;;;;;;;;;;;1.70;99.90;;;;;;4950116;28;19922;-75
2022/11/30 05:35:53;;;;;;;;;;;1.60;99.90;;;;;;4947508;28;19929;-75
2022/11/30 05:38:18;;;;;;;;;;;1.50;99.90;;;;;;4939196;28;19922;-75
2022/11/30 05:40:44;;;;;;;;;;;1.50;99.90;;;;;;4949430;28;20215;-75
2022/11/30 05:43:09;;;;;;;;;;;1.40;99.90;;;;;;4954498;28;19930;-75
2022/11/30 05:45:35;;;;;;;;;;;1.40;99.90;;;;;;4941667;28;20020;-75
2022/11/30 05:48:00;;;;;;;;;;;1.40;99.90;;;;;;4942985;28;19931;-75
2022/11/30 05:50:26;;;;;;;;;;;1.30;99.90;;;;;;4924623;28;19969;-75
2022/11/30 05:52:55;;;;;;;;;;;1.40;99.90;;;;;;4951286;28;19922;-75
2022/11/30 05:55:21;;;;;;;;;;;1.40;99.90;;;;;;4930619;28;19942;-75
2022/11/30 05:57:46;;;;;;;;;;;1.50;99.90;;;;;;4952796;28;19926;-75
2022/11/30 06:00:12;;;;;;;;;;;1.60;99.90;;;;;;4932183;28;19988;-75
2022/11/30 06:02:38;;;;;;;;;;;1.60;99.90;;;;;;4921334;28;19989;-75
2022/11/30 06:05:04;;;;;;;;;;;1.60;99.90;;;;;;4945585;28;19966;-75
2022/11/30 06:07:29;;;;;;;;;;;1.60;99.90;;;;;;4952645;28;19923;-75
2022/11/30 06:09:55;;;;;;;;;;;1.60;99.90;;;;;;4959921;28;19926;-75
2022/11/30 06:12:20;;;;;;;;;;;1.60;99.90;;;;;;4968543;28;19922;-75
2022/11/30 06:14:46;;;;;;;;;;;1.60;99.90;;;;;;4952977;28;20382;-75
2022/11/30 06:17:11;;;;;;;;;;;1.70;99.90;;;;;;4953612;28;20354;-76
2022/11/30 06:19:37;;;;;;;;;;;1.60;99.90;;;;;;4957136;28;19926;-75
2022/11/30 06:22:03;;;;;;;;;;;1.60;99.90;;;;;;4938255;28;20255;-75
2022/11/30 06:24:28;;;;;;;;;;;1.50;99.90;;;;;;4959948;28;20394;-73
2022/11/30 06:26:54;;;;;;;;;;;1.50;99.90;;;;;;4941518;28;19941;-73
2022/11/30 06:29:19;;;;;;;;;;;1.50;99.90;;;;;;4959718;28;19978;-74
2022/11/30 06:31:45;;;;;;;;;;;1.60;99.90;;;;;;4943501;28;19923;-74
2022/11/30 06:34:10;;;;;;;;;;;1.60;99.90;;;;;;4935345;28;19927;-74
2022/11/30 06:36:36;;;;;;;;;;;1.70;99.90;;;;;;4936587;28;20000;-74
2022/11/30 06:39:02;;;;;;;;;;;1.70;99.90;;;;;;4938408;28;19926;-74
2022/11/30 06:41:27;;;;;;;;;;;1.80;99.90;;;;;;4962782;28;19926;-74
2022/11/30 06:43:53;;;;;;;;;;;1.80;99.90;;;;;;4944376;28;19926;-73
2022/11/30 06:46:20;;;;;;;;;;;1.80;99.90;;;;;;4962508;28;19926;-73
2022/11/30 06:48:46;;;;;;;;;;;1.80;99.90;;;;;;4973272;28;19922;-74
2022/11/30 06:51:12;;;;;;;;;;;1.80;99.90;;;;;;4947644;28;19945;-74
2022/11/30 06:53:38;;;;;;;;;;;1.80;99.90;;;;;;4948149;28;19926;-74
2022/11/30 06:56:04;;;;;;;;;;;1.70;99.90;;;;;;4951827;28;20404;-74
2022/11/30 06:58:30;;;;;;;;;;;1.60;99.90;;;;;;4957827;28;20170;-73
2022/11/30 07:00:55;;;;;;;;;;;1.60;99.90;;;;;;4980486;28;19934;-73
2022/11/30 07:03:21;;;;;;;;;;;1.50;99.90;;;;;;4962542;28;19929;-73
2022/11/30 07:05:47;;;;;;;;;;;1.50;99.90;;;;;;4966256;28;19949;-73
2022/11/30 07:08:13;;;;;;;;;;;1.50;99.90;;;;;;4974014;28;19923;-73
2022/11/30 07:10:43;;;;;;;;;;;1.40;99.90;;;;;;4951825;28;19926;-73
2022/11/30 07:13:13;;;;;;;;;;;1.30;99.90;;;;;;4970318;28;19930;-73
2022/11/30 07:15:39;;;;;;;;;;;1.30;99.90;;;;;;4973327;28;20326;-74
2022/11/30 07:18:04;;;;;;;;;;;1.20;99.90;;;;;;4965054;28;19922;-73
2022/11/30 07:20:30;;;;;;;;;;;1.20;99.90;;;;;;4944324;28;19976;-73
2022/11/30 07:22:56;;;;;;;;;;;1.20;99.90;;;;;;4977049;28;19937;-73
2022/11/30 07:28:07;;;;;;;;;;;1.20;99.90;;;;;;4952496;28;19922;-73
2022/11/30 07:30:33;;;;;;;;;;;1.20;99.90;;;;;;4967515;28;19922;-73
2022/11/30 07:32:58;;;;;;;;;;;1.30;99.90;;;;;;4948386;28;20587;-73
2022/11/30 07:35:24;;;;;;;;;;;1.40;99.90;;;;;;4970021;28;19980;-73
2022/11/30 07:37:50;;;;;;;;;;;1.50;99.90;;;;;;4957879;28;19922;-73
2022/11/30 07:40:15;;;;;;;;;;;1.50;99.90;;;;;;4953945;28;19937;-73
2022/11/30 07:42:41;;;;;;;;;;;1.60;99.90;;;;;;4968531;28;19930;-73
2022/11/30 07:45:07;;;;;;;;;;;1.60;99.90;;;;;;4970537;28;19955;-73
2022/11/30 07:47:32;;;;;;;;;;;1.60;99.90;;;;;;4958900;28;19930;-74
2022/11/30 07:49:58;;;;;;;;;;;1.60;99.90;;;;;;4948953;28;20298;-73
2022/11/30 07:52:23;;;;;;;;;;;1.50;99.90;;;;;;4937310;28;20009;-74
2022/11/30 07:54:49;;;;;;;;;;;1.50;99.90;;;;;;4959479;28;19925;-74
2022/11/30 07:57:15;;;;;;;;;;;1.60;99.90;;;;;;4944755;28;19934;-74
2022/11/30 07:59:40;;;;;;;;;;;1.60;99.90;;;;;;4945405;28;19930;-74
2022/11/30 08:02:06;;;;;;;;;;;1.60;99.90;;;;;;4963583;28;19931;-77
2022/11/30 08:04:31;;;;;;;;;;;1.60;99.90;;;;;;4958764;28;19922;-77
2022/11/30 08:06:58;;;;;;;;;;;1.60;99.90;;;;;;4951346;28;20014;-76
2022/11/30 08:09:23;;;;;;;;;;;1.60;99.90;;;;;;4968937;28;19931;-76
2022/11/30 08:11:49;;;;;;;;;;;1.60;99.90;;;;;;4956329;28;20021;-76
2022/11/30 08:14:15;;;;;;;;;;;1.70;99.90;;;;;;4951630;28;20434;-75
2022/11/30 08:16:42;;;;;;;;;;;1.80;99.90;;;;;;4963144;28;19926;-75
2022/11/30 08:19:08;;;;;;;;;;;1.90;99.90;;;;;;4964911;28;20383;-76
2022/11/30 08:21:37;;;;;;;;;;;2.00;99.90;;;;;;4953349;28;19934;-77
2022/11/30 08:24:02;;;;;;;;;;;2.10;99.90;;;;;;4964699;28;19930;-77
2022/11/30 08:26:30;;;;;;;;;;;2.20;99.90;;;;;;4935098;28;19964;-76
2022/11/30 08:28:56;;;;;;;;;;;2.30;99.90;;;;;;4964815;28;19933;-76
2022/11/30 08:31:29;;;;;;;;;;;2.30;99.90;;;;;;4953990;28;19923;-76
2022/11/30 08:33:56;;;;;;;;;;;2.40;99.90;;;;;;4951798;28;19936;-76
2022/11/30 08:36:22;;;;;;;;;;;2.50;99.90;;;;;;4951423;28;19973;-75
2022/11/30 08:38:48;;;;;;;;;;;2.60;99.90;;;;;;4958959;28;20412;-75
2022/11/30 08:41:18;;;;;;;;;;;2.70;99.90;;;;;;4967519;28;19942;-75
2022/11/30 08:43:44;;;;;;;;;;;2.80;99.90;;;;;;4963720;28;19926;-76
2022/11/30 08:46:12;;;;;;;;;;;2.90;99.90;;;;;;4960027;28;19930;-76
2022/11/30 08:48:37;;;;;;;;;;;3.10;99.90;;;;;;4951347;28;20635;-77
2022/11/30 08:51:04;;;;;;;;;;;3.20;99.90;;;;;;4951374;28;19933;-76
2022/11/30 08:53:30;;;;;;;;;;;3.30;99.90;;;;;;4950443;28;19976;-76
2022/11/30 08:56:00;;;;;;;;;;;3.40;99.90;;;;;;4956926;28;19977;-76
2022/11/30 08:58:26;;;;;;;;;;;3.60;99.90;;;;;;4963066;28;19933;-76
2022/11/30 09:00:52;;;;;;;;;;;3.70;99.90;;;;;;4952138;28;19926;-76
2022/11/30 09:03:18;;;;;;;;;;;3.80;99.90;;;;;;4955445;28;19961;-75
2022/11/30 09:05:43;;;;;;;;;;;3.90;99.90;;;;;;4947447;28;19961;-77
2022/11/30 09:08:09;;;;;;;;;;;4.00;99.90;;;;;;4953827;28;20020;-76
2022/11/30 09:10:35;;;;;;;;;;;4.00;99.90;;;;;;4964355;28;19930;-77
2022/11/30 09:13:01;;;;;;;;;;;4.10;99.90;;;;;;4946062;28;20002;-76
2022/11/30 09:15:26;;;;;;;;;;;4.10;99.90;;;;;;4964431;28;20679;-76
2022/11/30 09:17:52;;;;;;;;;;;4.20;99.90;;;;;;4963470;28;20036;-76
2022/11/30 09:20:18;;;;;;;;;;;4.20;99.90;;;;;;4966642;28;19926;-76
2022/11/30 09:22:44;;;;;;;;;;;4.30;99.90;;;;;;4958631;28;19933;-76
2022/11/30 09:25:09;;;;;;;;;;;4.30;99.90;;;;;;4968023;28;19926;-77
2022/11/30 09:27:35;;;;;;;;;;;4.40;99.90;;;;;;4967406;28;19929;-77
2022/11/30 09:30:01;;;;;;;;;;;4.40;99.90;;;;;;4939496;29;20363;-76
2022/11/30 09:32:27;;;;;;;;;;;4.40;99.90;;;;;;4952548;28;19926;-77
2022/11/30 09:34:53;;;;;;;;;;;4.50;99.90;;;;;;4964202;28;20402;-77
2022/11/30 09:37:19;;;;;;;;;;;4.60;99.90;;;;;;4958885;28;19966;-75
2022/11/30 09:39:45;;;;;;;;;;;4.70;99.90;;;;;;4941642;28;19929;-77
2022/11/30 09:42:23;;;;;;;;;;;4.80;99.90;;;;;;4939272;28;19930;-76
2022/11/30 09:44:54;;;;;;;;;;;4.90;99.90;;;;;;4972642;28;20332;-76
2022/11/30 09:47:52;;;;;;;;;;;5.10;99.90;;;;;;4956966;28;19945;-76
2022/11/30 09:50:23;;;;;;;;;;;5.20;99.90;;;;;;4957157;28;20453;-75
2022/11/30 09:52:51;;;;;;;;;;;5.30;99.90;;;;;;4969421;28;19926;-76
2022/11/30 09:55:23;;;;;;;;;;;5.40;99.90;;;;;;4934750;29;19926;-76
2022/11/30 09:57:51;;;;;;;;;;;5.50;99.90;;;;;;4976534;28;19925;-76
2022/11/30 10:00:20;;;;;;;;;;;5.50;99.90;;;;;;4957488;28;20279;-78
2022/11/30 10:02:48;;;;;;;;;;;5.60;99.90;;;;;;4956922;28;20392;-76
2022/11/30 10:05:15;;;;;;;;;;;5.70;99.90;;;;;;4964814;28;20201;-76
2022/11/30 10:08:16;;;;;;;;;;;5.70;99.90;;;;;;4951244;28;19926;-76
2022/11/30 10:10:55;;;;;;;;;;;5.80;99.90;;;;;;4909700;29;19965;-75
2022/11/30 10:13:22;;;;;;;;;;;5.90;99.90;;;;;;4945902;28;19926;-75
2022/11/30 10:15:50;;;;;;;;;;;5.90;99.90;;;;;;4942083;28;20472;-75
2022/11/30 10:18:16;;;;;;;;;;;5.90;99.90;;;;;;4950459;28;19923;-75
2022/11/30 10:20:41;;;;;;;;;;;5.90;99.90;;;;;;4958181;28;19953;-75
2022/11/30 10:23:10;;;;;;;;;;;6.00;99.90;;;;;;4960448;28;19961;-75
2022/11/30 10:25:38;;;;;;;;;;;6.00;99.90;;;;;;4961495;28;19922;-75
2022/11/30 10:28:16;;;;;;;;;;;6.10;99.90;;;;;;4941329;28;19926;-75
2022/11/30 10:30:41;;;;;;;;;;;6.10;99.90;;;;;;4940115;28;19977;-75
2022/11/30 10:33:23;;;;;;;;;;;6.10;99.90;;;;;;4932800;28;20319;-75
2022/11/30 10:35:55;;;;;;;;;;;6.20;99.90;;;;;;4964965;28;19967;-75
2022/11/30 10:38:35;;;;;;;;;;;6.20;99.90;;;;;;4951321;28;20298;-75
2022/11/30 10:41:02;;;;;;;;;;;6.20;99.90;;;;;;4955189;28;20006;-75
2022/11/30 10:43:46;;;;;;;;;;;6.20;99.90;;;;;;4956366;28;19932;-75
2022/11/30 10:46:20;;;;;;;;;;;6.20;99.90;;;;;;4948708;28;19923;-75
2022/11/30 10:49:01;;;;;;;;;;;6.20;99.90;;;;;;4958054;28;19926;-75
2022/11/30 10:51:27;;;;;;;;;;;6.20;99.90;;;;;;4943426;28;20012;-75
2022/11/30 10:53:53;;;;;;;;;;;6.20;99.90;;;;;;4956882;28;20025;-75
2022/11/30 10:56:19;;;;;;;;;;;6.20;99.90;;;;;;4950105;28;19974;-75
2022/11/30 10:59:03;;;;;;;;;;;6.20;99.90;;;;;;4954460;28;19980;-75
2022/11/30 11:01:30;;;;;;;;;;;6.20;99.90;;;;;;4938679;28;19927;-75
2022/11/30 11:04:12;;;;;;;;;;;6.20;99.90;;;;;;4972986;28;19926;-76
2022/11/30 11:06:58;;;;;;;;;;;6.20;99.90;;;;;;4962758;28;19933;-75
2022/11/30 11:09:27;;;;;;;;;;;6.20;99.90;;;;;;4948744;28;20369;-76
2022/11/30 11:11:53;;;;;;;;;;;6.20;99.90;;;;;;4954757;28;20438;-75
2022/11/30 11:14:23;;;;;;;;;;;6.30;99.90;;;;;;4957758;28;20425;-74
2022/11/30 11:16:51;;;;;;;;;;;6.30;99.90;;;;;;4959420;28;20338;-75
2022/11/30 11:19:24;;;;;;;;;;;6.30;99.90;;;;;;4970264;28;19997;-75
2022/11/30 11:21:50;;;;;;;;;;;6.30;99.90;;;;;;4968192;28;19973;-75
2022/11/30 11:24:18;;;;;;;;;;;6.30;99.90;;;;;;4946296;28;19961;-75
2022/11/30 11:26:49;;;;;;;;;;;6.40;99.90;;;;;;4976164;28;19922;-74
2022/11/30 11:29:32;;;;;;;;;;;6.40;99.90;;;;;;4971812;28;19929;-75
2022/11/30 11:32:17;;;;;;;;;;;6.40;99.90;;;;;;4962180;28;20301;-75
2022/11/30 11:34:44;;;;;;;;;;;6.40;99.90;;;;;;4943608;28;19926;-75
2022/11/30 11:37:29;;;;;;;;;;;6.50;99.90;;;;;;4955247;28;20480;-75
2022/11/30 11:40:01;;;;;;;;;;;6.50;99.90;;;;;;4960114;28;19972;-75
2022/11/30 11:42:29;;;;;;;;;;;6.50;99.90;;;;;;4960572;28;19938;-75
2022/11/30 11:44:56;;;;;;;;;;;6.50;99.90;;;;;;4958623;28;20513;-75
2022/11/30 11:47:26;;;;;;;;;;;6.50;99.90;;;;;;4956586;28;20155;-75
2022/11/30 11:50:03;;;;;;;;;;;6.60;99.90;;;;;;4957219;28;19926;-74
2022/11/30 11:52:29;;;;;;;;;;;6.60;99.90;;;;;;4954811;28;19922;-74
2022/11/30 11:55:00;;;;;;;;;;;6.60;99.90;;;;;;4948793;28;19926;-74
2022/11/30 11:57:36;;;;;;;;;;;6.60;99.90;;;;;;4951237;28;20405;-74
2022/11/30 12:00:05;;;;;;;;;;;6.60;99.90;;;;;;4959439;28;19930;-74
2022/11/30 12:02:33;;;;;;;;;;;6.70;99.90;;;;;;4957960;28;19926;-75
2022/11/30 12:05:02;;;;;;;;;;;6.70;99.90;;;;;;4955948;28;19926;-75
2022/11/30 12:07:33;;;;;;;;;;;6.70;99.90;;;;;;4961672;28;20282;-75
2022/11/30 12:10:02;;;;;;;;;;;6.70;99.90;;;;;;4948285;28;19923;-75
2022/11/30 12:12:28;;;;;;;;;;;6.70;99.90;;;;;;4947833;28;19942;-75
2022/11/30 12:14:54;;;;;;;;;;;6.70;99.90;;;;;;4949445;28;19922;-75
2022/11/30 12:17:20;;;;;;;;;;;6.70;99.90;;;;;;4959459;28;19928;-76
2022/11/30 12:20:03;;;;;;;;;;;6.80;99.90;;;;;;4955835;28;20532;-75
2022/11/30 12:22:38;;;;;;;;;;;6.80;99.90;;;;;;4934213;28;20039;-76
2022/11/30 12:25:23;;;;;;;;;;;6.90;99.90;;;;;;4963135;28;20016;-76
2022/11/30 12:28:08;;;;;;;;;;;6.90;99.90;;;;;;4956461;28;19929;-76
2022/11/30 12:30:43;;;;;;;;;;;7.00;99.90;;;;;;4936452;28;19980;-76
2022/11/30 12:33:14;;;;;;;;;;;7.00;99.90;;;;;;4937590;28;19926;-76
2022/11/30 12:35:58;;;;;;;;;;;7.00;99.90;;;;;;4946319;28;20377;-76
2022/11/30 12:38:30;;;;;;;;;;;7.10;99.90;;;;;;4941635;28;19926;-75
2022/11/30 12:41:11;;;;;;;;;;;7.10;99.90;;;;;;4952701;28;19934;-75
2022/11/30 12:43:45;;;;;;;;;;;7.00;99.90;;;;;;4961713;28;19926;-76
2022/11/30 12:46:19;;;;;;;;;;;7.00;99.90;;;;;;4971156;28;20442;-76
2022/11/30 12:48:59;;;;;;;;;;;7.00;99.90;;;;;;4953162;28;20264;-75
2022/11/30 12:51:32;;;;;;;;;;;7.00;99.90;;;;;;4939946;28;19938;-76
2022/11/30 12:54:02;;;;;;;;;;;7.00;99.90;;;;;;4943587;28;19923;-76
2022/11/30 12:56:34;;;;;;;;;;;7.00;99.90;;;;;;4945730;28;20355;-75
2022/11/30 12:59:29;;;;;;;;;;;7.00;99.90;;;;;;4953218;28;19950;-75
2022/11/30 13:02:04;;;;;;;;;;;7.00;99.90;;;;;;4961333;28;20025;-75
2022/11/30 13:04:48;;;;;;;;;;;7.00;99.90;;;;;;4973542;28;20021;-75
2022/11/30 13:07:21;;;;;;;;;;;7.00;99.90;;;;;;4956422;28;20029;-75
2022/11/30 13:09:49;;;;;;;;;;;7.10;99.90;;;;;;4963113;28;19978;-75
2022/11/30 13:12:47;;;;;;;;;;;7.10;99.90;;;;;;4972254;28;19922;-76
2022/11/30 13:15:22;;;;;;;;;;;7.10;99.90;;;;;;4931667;28;19929;-76
2022/11/30 13:17:48;;;;;;;;;;;7.00;99.90;;;;;;4956693;28;20062;-76
2022/11/30 13:20:23;;;;;;;;;;;7.00;99.90;;;;;;4951530;28;19926;-76
2022/11/30 13:22:51;;;;;;;;;;;7.10;99.90;;;;;;4953581;28;20160;-75
2022/11/30 13:25:21;;;;;;;;;;;7.10;99.90;;;;;;4948028;28;20002;-74
2022/11/30 13:27:50;;;;;;;;;;;7.00;99.90;;;;;;4951593;28;19934;-75
2022/11/30 13:30:39;;;;;;;;;;;7.00;99.90;;;;;;4948958;28;19978;-75
2022/11/30 13:33:24;;;;;;;;;;;6.90;99.90;;;;;;4961098;28;20437;-76
2022/11/30 13:35:53;;;;;;;;;;;6.90;99.90;;;;;;4956817;28;19985;-76
2022/11/30 13:38:19;;;;;;;;;;;6.90;99.90;;;;;;4954033;28;19926;-75
2022/11/30 13:40:55;;;;;;;;;;;6.90;99.90;;;;;;4954975;28;20009;-76
2022/11/30 13:43:22;;;;;;;;;;;6.80;99.90;;;;;;4929804;28;20474;-75
2022/11/30 13:45:48;;;;;;;;;;;6.80;99.90;;;;;;4960775;28;20182;-75
2022/11/30 13:48:32;;;;;;;;;;;6.80;99.90;;;;;;4938563;28;20443;-76
2022/11/30 13:51:02;;;;;;;;;;;6.80;99.90;;;;;;4968447;28;19945;-76
2022/11/30 13:53:29;;;;;;;;;;;6.80;99.90;;;;;;4967184;28;20453;-75
2022/11/30 13:55:55;;;;;;;;;;;6.70;99.90;;;;;;4947683;28;20228;-76
2022/11/30 13:58:21;;;;;;;;;;;6.70;99.90;;;;;;4940006;29;19922;-75
2022/11/30 14:00:59;;;;;;;;;;;6.70;99.90;;;;;;4946152;28;20001;-76
2022/11/30 14:03:27;;;;;;;;;;;6.70;99.90;;;;;;4964514;28;19930;-75
2022/11/30 14:06:11;;;;;;;;;;;6.70;99.90;;;;;;4967178;28;19969;-75
2022/11/30 14:08:37;;;;;;;;;;;6.70;99.90;;;;;;4955306;28;20642;-75
2022/11/30 14:11:21;;;;;;;;;;;6.70;99.90;;;;;;4949132;28;19934;-75
2022/11/30 14:13:47;;;;;;;;;;;6.60;99.90;;;;;;4937698;28;20353;-75
2022/11/30 14:16:21;;;;;;;;;;;6.60;99.90;;;;;;4930580;29;19927;-75
2022/11/30 14:18:47;;;;;;;;;;;6.60;99.90;;;;;;4951135;28;19953;-75
2022/11/30 14:21:18;;;;;;;;;;;6.60;99.90;;;;;;4954860;28;19977;-75
2022/11/30 14:24:05;;;;;;;;;;;6.60;99.90;;;;;;4940455;28;19927;-74
2022/11/30 14:26:39;;;;;;;;;;;6.50;99.90;;;;;;4953945;28;19923;-75
2022/11/30 14:29:07;;;;;;;;;;;6.50;99.90;;;;;;4950694;28;19937;-75
2022/11/30 14:31:38;;;;;;;;;;;6.40;99.90;;;;;;4967948;28;19940;-75
2022/11/30 14:34:07;;;;;;;;;;;6.40;99.90;;;;;;4967126;28;20057;-76
2022/11/30 14:36:36;;;;;;;;;;;6.40;99.90;;;;;;4970930;28;19925;-75
2022/11/30 14:39:02;;;;;;;;;;;6.40;99.90;;;;;;4945138;28;19933;-77
2022/11/30 14:41:29;;;;;;;;;;;6.40;99.90;;;;;;4955958;28;20207;-75